Latest Coastal Weather Observations for Yeppoon

IDQ60701

Issued at 2:12 pm EST Sunday 1 February 2015 (issued every 10 minutes, with the page automatically refreshed every 10 minutes)

About coastal observations | Map of coastal stations | Coastal observations for QLD | Marine services | Other Formats
Station Details ID: 033294 Name: YEPPOON THE ESPLANADE Lat: -23.14 Lon: 150.75 Height: 5.5 m
Data from the previous 72 hours. | See also: Recent months at Yeppoon
Date/Time
EST
Temp

°C
Wind Pressure Rain
since 9am
mm
Weather Cloud Vis
km
Sea
Height
m
Swell
Dir
 
Speed
knots
Gust
knots
hPa Trend Height
m
Period
s
Dir
01/02:00pm 30.4 NNE 12 13 1004.5 - 0.0 - - - - - - -
01/01:30pm 30.5 NNE 11 13 1004.8 - 0.0 - - - - - - -
01/01:00pm 30.6 NNE 9 10 1005.1 - 0.0 - - - - - - -
01/12:30pm 30.3 NE 7 9 1005.6 - 0.0 - - - - - - -
01/12:00pm 29.7 NNE 7 9 1006.1 - 0.0 - - - - - - -
01/11:30am 29.4 NNE 7 9 1006.6 - 0.0 - - - - - - -
01/11:00am 29.5 NE 7 9 1007.1 - 0.0 - - - - - - -
01/10:30am 29.5 NE 6 8 1007.4 - 0.0 - - - - - - -
01/10:00am 29.3 ENE 4 6 1007.4 - 0.0 - - - - - - -
01/09:30am 29.3 E 6 9 1007.5 - 0.0 - - - - - - -
01/09:00am 29.3 WNW 4 6 1007.6 - 0.0 - - - - - - -
01/08:30am 28.4 SW 5 8 1007.6 - 0.0 - - - - - - -
01/08:00am 27.4 SSW 5 7 1007.5 - 0.0 - - - - - - -
01/07:30am 26.0 SW 5 7 1007.4 - 0.0 - - - - - - -
01/07:00am 24.1 W 6 8 1007.1 - 0.0 - - - - - - -
01/06:30am 22.5 WSW 6 8 1006.9 - 0.0 - - - - - - -
01/06:00am 21.4 W 5 7 1006.5 - 0.0 - - - - - - -
01/05:30am 21.4 W 5 7 1006.3 - 0.0 - - - - - - -
01/05:00am 21.7 WNW 7 8 1006.0 - 0.0 - - - - - - -
01/04:30am 21.8 W 6 7 1005.9 - 0.0 - - - - - - -
01/04:00am 22.1 W 5 6 1005.8 - 0.0 - - - - - - -
01/03:30am 22.2 WNW 4 5 1005.8 - 0.0 - - - - - - -
01/03:00am 22.4 WSW 3 4 1005.8 - 0.0 - - - - - - -
01/02:30am 22.8 W 3 3 1006.1 - 0.0 - - - - - - -
01/02:00am 23.1 WSW 2 3 1006.3 - 0.0 - - - - - - -
01/01:30am 23.1 W 4 5 1006.5 - 0.0 - - - - - - -
01/01:00am 23.7 W 3 4 1006.8 - 0.0 - - - - - - -
01/12:30am 23.9 W 2 4 1007.0 - 0.0 - - - - - - -
01/12:00am 24.2 W 5 5 1007.2 - 0.0 - - - - - - -
 
Date/Time
EST
Temp

°C
Wind Pressure Rain
since 9am
mm
Weather Cloud Vis
km
Sea
Height
m
Swell
Dir
 
Speed
knots
Gust
knots
hPa Trend Height
m
Period
s
Dir
31/11:30pm 24.5 W 4 6 1007.2 - 0.0 - - - - - - -
31/11:00pm 25.3 W 3 4 1007.3 - 0.0 - - - - - - -
31/10:30pm 25.9 WNW 3 6 1007.4 - 0.0 - - - - - - -
31/10:00pm 26.3 NNW 5 7 1007.3 - 0.0 - - - - - - -
31/09:30pm 26.5 NNW 6 9 1007.2 - 0.0 - - - - - - -
31/09:00pm 26.9 N 7 10 1006.9 - 0.0 - - - - - - -
31/08:30pm 27.0 N 6 8 1006.5 - 0.0 - - - - - - -
31/08:00pm 28.3 NNE 14 17 1006.2 - 0.0 - - - - - - -
31/07:30pm 28.3 NNE 13 16 1006.0 - 0.0 - - - - - - -
31/07:00pm 28.4 NNE 11 13 1005.8 - 0.0 - - - - - - -
31/06:30pm 28.4 NNE 11 13 1005.7 - 0.0 - - - - - - -
31/06:00pm 28.7 NNE 11 13 1005.7 - 0.0 - - - - - - -
31/05:30pm 28.9 NNE 11 13 1005.2 - 0.0 - - - - - - -
31/05:00pm 28.9 NNE 10 12 1005.0 - 0.0 - - - - - - -
31/04:30pm 29.1 NNE 12 13 1004.8 - 0.0 - - - - - - -
31/04:00pm 29.3 NNE 10 11 1004.6 - 0.0 - - - - - - -
31/03:30pm 29.4 NNE 10 12 1004.7 - 0.0 - - - - - - -
31/03:00pm 29.8 NE 8 10 1005.1 - 0.0 - - - - - - -
31/02:30pm 29.7 NE 9 10 1005.7 - 0.0 - - - - - - -
31/02:00pm 30.1 NE 7 10 1006.1 - 0.0 - - - - - - -
31/01:30pm 29.5 NE 7 9 1006.6 - 0.0 - - - - - - -
31/01:00pm 29.6 NE 8 11 1007.1 - 0.0 - - - - - - -
31/12:30pm 29.7 NE 6 9 1007.4 - 0.0 - - - - - - -
31/12:00pm 29.2 NE 6 9 1007.7 - 0.0 - - - - - - -
31/11:30am 28.9 NE 6 8 1008.0 - 0.0 - - - - - - -
31/11:00am 29.0 NE 5 7 1008.4 - 0.0 - - - - - - -
31/10:30am 28.7 ENE 4 6 1008.4 - 0.0 - - - - - - -
31/10:00am 28.7 ENE 5 7 1008.5 - 0.0 - - - - - - -
31/09:30am 28.8 E 6 8 1008.7 - 0.0 - - - - - - -
31/09:00am 28.7 ENE 4 6 1008.8 - 0.0 - - - - - - -
31/08:30am 28.3 E 5 7 1008.8 - 0.0 - - - - - - -
31/08:00am 26.8 N 3 5 1008.7 - 0.0 - - - - - - -
31/07:30am 25.6 SW 3 4 1008.5 - 0.0 - - - - - - -
31/07:00am 23.9 W 5 5 1008.2 - 0.0 - - - - - - -
31/06:30am 22.6 WSW 5 7 1008.2 - 0.0 - - - - - - -
31/06:00am 22.1 W 5 7 1007.8 - 0.0 - - - - - - -
31/05:30am 22.1 W 5 6 1007.5 - 0.0 - - - - - - -
31/05:00am 22.1 WNW 6 7 1007.2 - 0.0 - - - - - - -
31/04:30am 22.8 W 4 5 1006.9 - 0.0 - - - - - - -
31/04:00am 24.1 WSW 2 4 1006.7 - 0.0 - - - - - - -
31/03:30am 26.3 ENE 5 7 1006.7 - 0.0 - - - - - - -
31/03:00am 26.3 ENE 7 10 1006.7 - 0.0 - - - - - - -
31/02:30am 26.4 NE 9 11 1006.6 - 0.0 - - - - - - -
31/02:00am 25.8 ENE 4 7 1006.9 - 0.0 - - - - - - -
31/01:30am 26.4 E 6 8 1007.0 - 0.0 - - - - - - -
31/01:00am 26.5 ENE 5 7 1007.3 - 0.0 - - - - - - -
31/12:30am 26.5 ENE 7 10 1007.7 - 0.0 - - - - - - -
31/12:00am 26.7 NE 7 10 1007.9 - 0.0 - - - - - - -
 
Date/Time
EST
Temp

°C
Wind Pressure Rain
since 9am
mm
Weather Cloud Vis
km
Sea
Height
m
Swell
Dir
 
Speed
knots
Gust
knots
hPa Trend Height
m
Period
s
Dir
30/11:30pm 26.7 ENE 7 9 1008.3 - 0.0 - - - - - - -
30/11:00pm 26.8 ENE 7 11 1008.5 - 0.0 - - - - - - -
30/10:30pm 26.7 ENE 7 11 1008.6 - 0.0 - - - - - - -
30/10:00pm 26.8 ENE 7 10 1008.4 - 0.0 - - - - - - -
30/09:30pm 26.9 ENE 8 12 1008.2 - 0.0 - - - - - - -
30/09:00pm 26.9 NE 9 11 1008.0 - 0.0 - - - - - - -
30/08:30pm 27.0 NE 9 11 1007.8 - 0.0 - - - - - - -
30/08:00pm 27.0 ENE 9 12 1007.7 - 0.0 - - - - - - -
30/07:30pm 27.1 ENE 9 11 1007.4 - 0.0 - - - - - - -
30/07:00pm 27.1 ENE 9 14 1007.1 - 0.0 - - - - - - -
30/06:30pm 27.2 ENE 7 10 1006.8 - 0.0 - - - - - - -
30/06:00pm 27.4 NE 9 12 1006.5 - 0.0 - - - - - - -
30/05:30pm 27.4 ENE 9 11 1006.3 - 0.0 - - - - - - -
30/05:00pm 27.6 ENE 9 13 1006.2 - 0.0 - - - - - - -
30/04:30pm 27.8 E 9 13 1006.1 - 0.0 - - - - - - -
30/04:00pm 28.4 E 10 13 1006.1 - 0.0 - - - - - - -
30/03:30pm 28.9 E 10 14 1006.0 - 0.0 - - - - - - -
30/03:00pm 28.9 E 11 14 1006.3 - 0.0 - - - - - - -
30/02:30pm 29.4 E 10 13 1006.6 - 0.0 - - - - - - -
30/02:00pm 29.0 E 11 14 1006.9 - 0.0 - - - - - - -
30/01:30pm 29.3 E 12 15 1007.3 - 0.0 - - - - - - -
30/01:00pm 29.2 E 11 16 1007.6 - 0.0 - - - - - - -
30/12:30pm 29.2 E 10 15 1007.9 - 0.0 - - - - - - -
30/12:00pm 29.1 ESE 10 15 1008.3 - 0.0 - - - - - - -
30/11:30am 29.0 ESE 10 17 1008.6 - 0.0 - - - - - - -
30/11:00am 28.8 E 11 16 1008.8 - 0.0 - - - - - - -
30/10:30am 28.8 ESE 10 15 1008.8 - 0.0 - - - - - - -
30/10:00am 27.9 ESE 11 14 1008.7 - 0.0 - - - - - - -
30/09:30am 27.6 ESE 11 15 1008.6 - 0.0 - - - - - - -
30/09:00am 26.9 SE 11 15 1008.6 - 0.2 - - - - - - -
30/08:30am 26.9 SE 10 15 1008.5 - 0.2 - - - - - - -
30/08:00am 26.0 SE 9 13 1008.4 - 0.2 - - - - - - -
30/07:30am 25.0 S 7 11 1008.4 - 0.2 - - - - - - -
30/07:00am 23.9 S 8 13 1007.9 - 0.2 - - - - - - -
30/06:30am 23.4 S 7 11 1007.6 - 0.2 - - - - - - -
30/06:00am 23.1 S 7 10 1007.1 - 0.2 - - - - - - -
30/05:30am 23.2 S 7 10 1006.6 - 0.2 - - - - - - -
30/05:00am 23.3 S 8 11 1006.3 - 0.2 - - - - - - -
30/04:30am 23.7 S 7 10 1006.3 - 0.2 - - - - - - -
30/04:00am 24.3 S 6 9 1006.2 - 0.2 - - - - - - -
30/03:30am 26.2 ESE 8 12 1006.4 - 0.2 - - - - - - -
30/03:00am 26.2 ESE 9 13 1006.4 - 0.2 - - - - - - -
30/02:30am 26.4 ESE 9 14 1006.5 - 0.2 - - - - - - -
30/02:00am 26.4 ESE 10 15 1006.9 - 0.2 - - - - - - -
30/01:30am 26.3 ESE 11 18 1007.1 - 0.2 - - - - - - -
30/01:00am 26.4 E 13 17 1007.2 - 0.2 - - - - - - -
30/12:30am 26.4 E 12 18 1007.3 - 0.2 - - - - - - -
30/12:00am 26.7 E 11 15 1007.7 - 0.2 - - - - - - -
 
Date/Time
EST
Temp

°C
Wind Pressure Rain
since 9am
mm
Weather Cloud Vis
km
Sea
Height
m
Swell
Dir
 
Speed
knots
Gust
knots
hPa Trend Height
m
Period
s
Dir
29/11:30pm 26.7 E 11 16 1007.8 - 0.2 - - - - - - -
29/11:00pm 26.8 E 14 19 1007.9 - 0.2 - - - - - - -
29/10:30pm 26.8 E 12 18 1008.1 - 0.2 - - - - - - -
29/10:00pm 26.8 E 13 18 1008.0 - 0.2 - - - - - - -
29/09:30pm 26.9 ESE 12 19 1007.9 - 0.2 - - - - - - -
29/09:00pm 26.8 ESE 10 15 1007.6 - 0.2 - - - - - - -
29/08:30pm 26.9 ESE 10 17 1007.6 - 0.2 - - - - - - -
29/08:00pm 26.8 ESE 11 16 1007.5 - 0.2 - - - - - - -
29/07:30pm 26.8 ESE 12 18 1007.4 - 0.2 - - - - - - -
29/07:00pm 27.0 ESE 12 18 1007.0 - 0.2 - - - - - - -
29/06:30pm 27.1 ESE 11 17 1006.5 - 0.2 - - - - - - -
29/06:00pm 27.2 ESE 12 17 1006.0 - 0.2 - - - - - - -
29/05:30pm 27.3 ESE 12 18 1005.7 - 0.2 - - - - - - -
29/05:00pm 27.6 E 12 17 1005.4 - 0.2 - - - - - - -
29/04:30pm 27.9 E 11 17 1005.3 - 0.2 - - - - - - -
29/04:00pm 28.7 ESE 11 16 1005.2 - 0.2 - - - - - - -
29/03:30pm 28.4 E 11 15 1005.1 - 0.2 - - - - - - -
29/03:00pm 28.5 ESE 10 16 1005.1 - 0.2 - - - - - - -
29/02:30pm 28.5 ESE 10 14 1005.2 - 0.2 - - - - - - -

Other Formats:

Comma delimited format used in spreadsheet applications
http://www.bom.gov.au/fwo/IDQ60701/IDQ60701.94373.axf

JavaScript Object Notation format (JSON) in row-major order
http://www.bom.gov.au/fwo/IDQ60701/IDQ60701.94373.json